Terminal Aerodrome Forecast
Issued by NWS

Home | Current Version | Previous Version | Text Only | Print | Product List | Glossary On
Versions: 1 2 3 4 5 6 7 8 9 10 11 12 13
767
FTUS43 KOAX 221722
TAFSNY
TAF
KSNY 221722Z 2218/2318 32018G25KT P6SM SKC
     FM222200 36011KT P6SM BKN110
     FM230500 06012KT P6SM OVC050=

USA.gov is the U.S. government's official web portal to all federal, state and local government web resources and services.